sensor_id;sensor_type;location;lat;lon;timestamp;P1;durP1;ratioP1;P2;durP2;ratioP2
64550;SDS011;50945;44.472;-123.352;2022-07-06T00:02:25;17.73;;;10.85;;
64550;SDS011;50945;44.472;-123.352;2022-07-06T00:04:51;15.40;;;9.30;;
64550;SDS011;50945;44.472;-123.352;2022-07-06T00:07:17;13.88;;;9.15;;
64550;SDS011;50945;44.472;-123.352;2022-07-06T00:09:43;13.90;;;9.13;;
64550;SDS011;50945;44.472;-123.352;2022-07-06T00:12:10;12.82;;;8.90;;
64550;SDS011;50945;44.472;-123.352;2022-07-06T00:14:36;14.82;;;9.45;;
64550;SDS011;50945;44.472;-123.352;2022-07-06T00:17:03;15.70;;;9.07;;
64550;SDS011;50945;44.472;-123.352;2022-07-06T00:19:29;16.73;;;9.02;;
64550;SDS011;50945;44.472;-123.352;2022-07-06T00:21:55;16.63;;;9.55;;
64550;SDS011;50945;44.472;-123.352;2022-07-06T00:24:22;15.55;;;9.82;;
64550;SDS011;50945;44.472;-123.352;2022-07-06T00:26:48;14.98;;;9.30;;
64550;SDS011;50945;44.472;-123.352;2022-07-06T00:29:15;16.45;;;10.13;;
64550;SDS011;50945;44.472;-123.352;2022-07-06T00:34:07;15.02;;;9.13;;
64550;SDS011;50945;44.472;-123.352;2022-07-06T00:38:59;13.13;;;8.77;;
64550;SDS011;50945;44.472;-123.352;2022-07-06T00:41:25;13.82;;;9.23;;
64550;SDS011;50945;44.472;-123.352;2022-07-06T00:43:53;17.65;;;9.95;;
64550;SDS011;50945;44.472;-123.352;2022-07-06T00:46:27;15.02;;;9.57;;
64550;SDS011;50945;44.472;-123.352;2022-07-06T00:48:57;17.75;;;10.07;;
64550;SDS011;50945;44.472;-123.352;2022-07-06T00:51:25;15.82;;;10.43;;
64550;SDS011;50945;44.472;-123.352;2022-07-06T00:53:55;13.45;;;9.10;;
64550;SDS011;50945;44.472;-123.352;2022-07-06T00:56:25;16.83;;;9.93;;
64550;SDS011;50945;44.472;-123.352;2022-07-06T00:58:52;15.35;;;10.18;;
64550;SDS011;50945;44.472;-123.352;2022-07-06T01:01:18;12.77;;;8.38;;
64550;SDS011;50945;44.472;-123.352;2022-07-06T01:06:11;15.32;;;8.77;;
64550;SDS011;50945;44.472;-123.352;2022-07-06T01:08:38;16.20;;;8.88;;
64550;SDS011;50945;44.472;-123.352;2022-07-06T01:11:05;12.27;;;7.50;;
64550;SDS011;50945;44.472;-123.352;2022-07-06T01:13:32;12.73;;;7.93;;
64550;SDS011;50945;44.472;-123.352;2022-07-06T01:15:59;13.55;;;8.32;;
64550;SDS011;50945;44.472;-123.352;2022-07-06T01:18:25;13.85;;;9.32;;
64550;SDS011;50945;44.472;-123.352;2022-07-06T01:23:29;10.85;;;6.82;;
64550;SDS011;50945;44.472;-123.352;2022-07-06T01:25:56;9.88;;;7.07;;
64550;SDS011;50945;44.472;-123.352;2022-07-06T01:28:22;10.00;;;7.30;;
64550;SDS011;50945;44.472;-123.352;2022-07-06T01:33:14;12.57;;;6.63;;
64550;SDS011;50945;44.472;-123.352;2022-07-06T01:38:07;8.55;;;5.78;;
64550;SDS011;50945;44.472;-123.352;2022-07-06T01:40:33;6.82;;;4.43;;
64550;SDS011;50945;44.472;-123.352;2022-07-06T01:42:59;8.40;;;4.90;;
64550;SDS011;50945;44.472;-123.352;2022-07-06T01:45:25;6.28;;;4.88;;
64550;SDS011;50945;44.472;-123.352;2022-07-06T01:47:52;8.65;;;4.32;;
64550;SDS011;50945;44.472;-123.352;2022-07-06T01:50:18;7.00;;;4.00;;
64550;SDS011;50945;44.472;-123.352;2022-07-06T01:52:47;6.97;;;4.25;;
64550;SDS011;50945;44.472;-123.352;2022-07-06T01:55:13;6.18;;;3.80;;
64550;SDS011;50945;44.472;-123.352;2022-07-06T01:57:39;6.47;;;4.35;;
64550;SDS011;50945;44.472;-123.352;2022-07-06T02:00:07;6.95;;;3.75;;
64550;SDS011;50945;44.472;-123.352;2022-07-06T02:02:34;6.05;;;3.97;;
64550;SDS011;50945;44.472;-123.352;2022-07-06T02:05:00;6.30;;;4.18;;
64550;SDS011;50945;44.472;-123.352;2022-07-06T02:09:52;5.03;;;3.85;;
64550;SDS011;50945;44.472;-123.352;2022-07-06T02:12:18;5.35;;;3.58;;
64550;SDS011;50945;44.472;-123.352;2022-07-06T02:14:45;4.82;;;3.17;;
64550;SDS011;50945;44.472;-123.352;2022-07-06T02:19:40;4.35;;;2.97;;
64550;SDS011;50945;44.472;-123.352;2022-07-06T02:24:32;4.00;;;3.03;;
64550;SDS011;50945;44.472;-123.352;2022-07-06T02:26:58;3.75;;;2.80;;
64550;SDS011;50945;44.472;-123.352;2022-07-06T02:29:24;4.22;;;3.03;;
64550;SDS011;50945;44.472;-123.352;2022-07-06T02:31:51;3.53;;;2.60;;
64550;SDS011;50945;44.472;-123.352;2022-07-06T02:34:17;4.18;;;2.83;;
64550;SDS011;50945;44.472;-123.352;2022-07-06T02:36:43;4.00;;;2.75;;
64550;SDS011;50945;44.472;-123.352;2022-07-06T02:39:09;4.57;;;2.80;;
64550;SDS011;50945;44.472;-123.352;2022-07-06T02:41:36;4.82;;;2.88;;
64550;SDS011;50945;44.472;-123.352;2022-07-06T02:44:02;5.90;;;2.60;;
64550;SDS011;50945;44.472;-123.352;2022-07-06T02:48:54;3.30;;;2.50;;
64550;SDS011;50945;44.472;-123.352;2022-07-06T02:51:20;4.63;;;2.42;;
64550;SDS011;50945;44.472;-123.352;2022-07-06T02:53:48;6.53;;;2.70;;
64550;SDS011;50945;44.472;-123.352;2022-07-06T02:56:15;4.60;;;2.63;;
64550;SDS011;50945;44.472;-123.352;2022-07-06T02:58:41;3.83;;;2.33;;
64550;SDS011;50945;44.472;-123.352;2022-07-06T03:01:07;2.55;;;2.35;;
64550;SDS011;50945;44.472;-123.352;2022-07-06T03:03:33;4.25;;;2.33;;
64550;SDS011;50945;44.472;-123.352;2022-07-06T03:06:00;3.20;;;2.17;;
64550;SDS011;50945;44.472;-123.352;2022-07-06T03:08:26;2.97;;;2.08;;
64550;SDS011;50945;44.472;-123.352;2022-07-06T03:10:52;6.07;;;2.33;;
64550;SDS011;50945;44.472;-123.352;2022-07-06T03:13:18;3.22;;;2.20;;
64550;SDS011;50945;44.472;-123.352;2022-07-06T03:15:45;4.43;;;2.30;;
64550;SDS011;50945;44.472;-123.352;2022-07-06T03:18:11;3.58;;;2.30;;
64550;SDS011;50945;44.472;-123.352;2022-07-06T03:20:37;2.33;;;1.90;;
64550;SDS011;50945;44.472;-123.352;2022-07-06T03:23:03;2.80;;;2.15;;
64550;SDS011;50945;44.472;-123.352;2022-07-06T03:25:30;4.35;;;2.35;;
64550;SDS011;50945;44.472;-123.352;2022-07-06T03:27:58;6.63;;;2.65;;
64550;SDS011;50945;44.472;-123.352;2022-07-06T03:30:24;3.50;;;2.20;;
64550;SDS011;50945;44.472;-123.352;2022-07-06T03:32:50;2.28;;;2.08;;
64550;SDS011;50945;44.472;-123.352;2022-07-06T03:35:16;2.35;;;2.13;;
64550;SDS011;50945;44.472;-123.352;2022-07-06T03:40:09;3.67;;;2.33;;
64550;SDS011;50945;44.472;-123.352;2022-07-06T03:42:36;4.63;;;2.22;;
64550;SDS011;50945;44.472;-123.352;2022-07-06T03:45:03;2.20;;;2.00;;
64550;SDS011;50945;44.472;-123.352;2022-07-06T03:47:30;2.20;;;2.00;;
64550;SDS011;50945;44.472;-123.352;2022-07-06T03:52:22;3.33;;;1.88;;
64550;SDS011;50945;44.472;-123.352;2022-07-06T03:54:48;5.35;;;1.92;;
64550;SDS011;50945;44.472;-123.352;2022-07-06T03:57:14;2.40;;;1.80;;
64550;SDS011;50945;44.472;-123.352;2022-07-06T03:59:42;3.47;;;1.75;;
64550;SDS011;50945;44.472;-123.352;2022-07-06T04:02:08;5.10;;;2.13;;
64550;SDS011;50945;44.472;-123.352;2022-07-06T04:07:00;2.33;;;2.10;;
64550;SDS011;50945;44.472;-123.352;2022-07-06T04:09:26;5.55;;;2.60;;
64550;SDS011;50945;44.472;-123.352;2022-07-06T04:11:53;4.35;;;2.15;;
64550;SDS011;50945;44.472;-123.352;2022-07-06T04:14:19;2.83;;;1.80;;
64550;SDS011;50945;44.472;-123.352;2022-07-06T04:16:45;2.10;;;1.90;;
64550;SDS011;50945;44.472;-123.352;2022-07-06T04:19:11;3.70;;;2.08;;
64550;SDS011;50945;44.472;-123.352;2022-07-06T04:21:38;5.85;;;2.10;;
64550;SDS011;50945;44.472;-123.352;2022-07-06T04:24:06;4.03;;;2.15;;
64550;SDS011;50945;44.472;-123.352;2022-07-06T04:26:33;3.83;;;1.83;;
64550;SDS011;50945;44.472;-123.352;2022-07-06T04:28:59;3.05;;;2.05;;
64550;SDS011;50945;44.472;-123.352;2022-07-06T04:31:26;3.65;;;1.58;;
64550;SDS011;50945;44.472;-123.352;2022-07-06T04:33:52;2.00;;;1.50;;
64550;SDS011;50945;44.472;-123.352;2022-07-06T04:36:18;1.77;;;1.67;;
64550;SDS011;50945;44.472;-123.352;2022-07-06T04:38:44;2.33;;;1.58;;
64550;SDS011;50945;44.472;-123.352;2022-07-06T04:41:12;2.13;;;1.75;;
64550;SDS011;50945;44.472;-123.352;2022-07-06T04:43:39;2.75;;;2.00;;
64550;SDS011;50945;44.472;-123.352;2022-07-06T04:46:06;2.92;;;1.90;;
64550;SDS011;50945;44.472;-123.352;2022-07-06T04:48:32;3.42;;;1.65;;
64550;SDS011;50945;44.472;-123.352;2022-07-06T04:51:01;2.20;;;2.10;;
64550;SDS011;50945;44.472;-123.352;2022-07-06T04:53:28;2.53;;;1.73;;
64550;SDS011;50945;44.472;-123.352;2022-07-06T04:58:20;2.78;;;1.48;;
64550;SDS011;50945;44.472;-123.352;2022-07-06T05:00:46;4.38;;;1.60;;
64550;SDS011;50945;44.472;-123.352;2022-07-06T05:03:12;2.83;;;1.92;;
64550;SDS011;50945;44.472;-123.352;2022-07-06T05:05:38;3.22;;;2.10;;
64550;SDS011;50945;44.472;-123.352;2022-07-06T05:08:05;1.85;;;1.75;;
64550;SDS011;50945;44.472;-123.352;2022-07-06T05:10:31;4.05;;;1.70;;
64550;SDS011;50945;44.472;-123.352;2022-07-06T05:12:57;4.72;;;1.70;;
64550;SDS011;50945;44.472;-123.352;2022-07-06T05:15:23;4.47;;;1.73;;
64550;SDS011;50945;44.472;-123.352;2022-07-06T05:20:16;4.80;;;1.65;;
64550;SDS011;50945;44.472;-123.352;2022-07-06T05:22:42;7.05;;;2.42;;
64550;SDS011;50945;44.472;-123.352;2022-07-06T05:25:08;5.15;;;2.10;;
64550;SDS011;50945;44.472;-123.352;2022-07-06T05:30:00;6.53;;;2.45;;
64550;SDS011;50945;44.472;-123.352;2022-07-06T05:32:27;7.60;;;2.83;;
64550;SDS011;50945;44.472;-123.352;2022-07-06T05:34:55;6.20;;;2.55;;
64550;SDS011;50945;44.472;-123.352;2022-07-06T05:37:22;4.97;;;2.60;;
64550;SDS011;50945;44.472;-123.352;2022-07-06T05:39:48;5.72;;;2.88;;
64550;SDS011;50945;44.472;-123.352;2022-07-06T05:42:15;3.83;;;2.45;;
64550;SDS011;50945;44.472;-123.352;2022-07-06T05:44:42;3.85;;;2.38;;
64550;SDS011;50945;44.472;-123.352;2022-07-06T05:47:08;4.47;;;2.50;;
64550;SDS011;50945;44.472;-123.352;2022-07-06T05:49:53;4.57;;;2.88;;
64550;SDS011;50945;44.472;-123.352;2022-07-06T05:52:40;7.68;;;2.55;;
64550;SDS011;50945;44.472;-123.352;2022-07-06T05:55:08;5.25;;;2.40;;
64550;SDS011;50945;44.472;-123.352;2022-07-06T05:57:35;6.28;;;2.00;;
64550;SDS011;50945;44.472;-123.352;2022-07-06T06:00:03;2.50;;;1.83;;
64550;SDS011;50945;44.472;-123.352;2022-07-06T06:02:36;2.03;;;1.65;;
64550;SDS011;50945;44.472;-123.352;2022-07-06T06:05:09;4.63;;;2.05;;
64550;SDS011;50945;44.472;-123.352;2022-07-06T06:07:39;1.95;;;1.55;;
64550;SDS011;50945;44.472;-123.352;2022-07-06T06:10:07;1.85;;;1.75;;
64550;SDS011;50945;44.472;-123.352;2022-07-06T06:12:36;3.67;;;2.00;;
64550;SDS011;50945;44.472;-123.352;2022-07-06T06:15:03;2.85;;;1.73;;
64550;SDS011;50945;44.472;-123.352;2022-07-06T06:17:31;3.40;;;2.00;;
64550;SDS011;50945;44.472;-123.352;2022-07-06T06:19:58;1.45;;;0.80;;
64550;SDS011;50945;44.472;-123.352;2022-07-06T06:22:25;2.35;;;1.73;;
64550;SDS011;50945;44.472;-123.352;2022-07-06T06:27:17;4.28;;;1.77;;
64550;SDS011;50945;44.472;-123.352;2022-07-06T06:29:45;3.95;;;1.50;;
64550;SDS011;50945;44.472;-123.352;2022-07-06T06:32:11;0.85;;;0.85;;
64550;SDS011;50945;44.472;-123.352;2022-07-06T06:34:41;2.60;;;1.20;;
64550;SDS011;50945;44.472;-123.352;2022-07-06T06:37:07;2.20;;;0.88;;
64550;SDS011;50945;44.472;-123.352;2022-07-06T06:39:33;0.95;;;0.60;;
64550;SDS011;50945;44.472;-123.352;2022-07-06T06:44:25;1.48;;;0.47;;
64550;SDS011;50945;44.472;-123.352;2022-07-06T06:46:52;0.88;;;0.80;;
64550;SDS011;50945;44.472;-123.352;2022-07-06T06:49:18;3.40;;;0.63;;
64550;SDS011;50945;44.472;-123.352;2022-07-06T06:51:44;3.00;;;0.80;;
64550;SDS011;50945;44.472;-123.352;2022-07-06T06:54:11;1.85;;;0.80;;
64550;SDS011;50945;44.472;-123.352;2022-07-06T06:56:37;2.28;;;0.85;;
64550;SDS011;50945;44.472;-123.352;2022-07-06T06:59:03;5.47;;;0.85;;
64550;SDS011;50945;44.472;-123.352;2022-07-06T07:01:29;0.57;;;0.57;;
64550;SDS011;50945;44.472;-123.352;2022-07-06T07:03:58;0.73;;;0.73;;
64550;SDS011;50945;44.472;-123.352;2022-07-06T07:08:50;2.67;;;0.60;;
64550;SDS011;50945;44.472;-123.352;2022-07-06T07:11:16;1.58;;;0.43;;
64550;SDS011;50945;44.472;-123.352;2022-07-06T07:13:43;1.85;;;0.45;;
64550;SDS011;50945;44.472;-123.352;2022-07-06T07:16:09;2.03;;;0.68;;
64550;SDS011;50945;44.472;-123.352;2022-07-06T07:18:35;0.80;;;0.80;;
64550;SDS011;50945;44.472;-123.352;2022-07-06T07:21:02;0.82;;;0.80;;
64550;SDS011;50945;44.472;-123.352;2022-07-06T07:23:28;3.25;;;0.90;;
64550;SDS011;50945;44.472;-123.352;2022-07-06T07:25:55;1.77;;;0.73;;
64550;SDS011;50945;44.472;-123.352;2022-07-06T07:28:21;0.68;;;0.68;;
64550;SDS011;50945;44.472;-123.352;2022-07-06T07:30:48;2.88;;;0.82;;
64550;SDS011;50945;44.472;-123.352;2022-07-06T07:33:15;0.70;;;0.70;;
64550;SDS011;50945;44.472;-123.352;2022-07-06T07:35:41;3.03;;;0.65;;
64550;SDS011;50945;44.472;-123.352;2022-07-06T07:38:07;0.47;;;0.47;;
64550;SDS011;50945;44.472;-123.352;2022-07-06T07:40:34;2.85;;;0.68;;
64550;SDS011;50945;44.472;-123.352;2022-07-06T07:43:01;1.15;;;0.38;;
64550;SDS011;50945;44.472;-123.352;2022-07-06T07:47:53;1.38;;;0.50;;
64550;SDS011;50945;44.472;-123.352;2022-07-06T07:50:19;0.55;;;0.55;;
64550;SDS011;50945;44.472;-123.352;2022-07-06T07:52:45;0.30;;;0.30;;
64550;SDS011;50945;44.472;-123.352;2022-07-06T07:55:12;0.28;;;0.28;;
64550;SDS011;50945;44.472;-123.352;2022-07-06T07:57:38;1.52;;;0.38;;
64550;SDS011;50945;44.472;-123.352;2022-07-06T08:00:05;1.98;;;0.68;;
64550;SDS011;50945;44.472;-123.352;2022-07-06T08:02:32;4.32;;;0.80;;
64550;SDS011;50945;44.472;-123.352;2022-07-06T08:04:58;2.92;;;0.73;;
64550;SDS011;50945;44.472;-123.352;2022-07-06T08:07:25;0.38;;;0.38;;
64550;SDS011;50945;44.472;-123.352;2022-07-06T08:09:51;1.02;;;0.47;;
64550;SDS011;50945;44.472;-123.352;2022-07-06T08:12:17;2.45;;;0.43;;
64550;SDS011;50945;44.472;-123.352;2022-07-06T08:14:43;1.55;;;0.52;;
64550;SDS011;50945;44.472;-123.352;2022-07-06T08:17:09;2.92;;;0.50;;
64550;SDS011;50945;44.472;-123.352;2022-07-06T08:19:36;3.22;;;0.60;;
64550;SDS011;50945;44.472;-123.352;2022-07-06T08:22:02;1.35;;;0.50;;
64550;SDS011;50945;44.472;-123.352;2022-07-06T08:24:35;1.50;;;0.43;;
64550;SDS011;50945;44.472;-123.352;2022-07-06T08:27:01;4.80;;;0.68;;
64550;SDS011;50945;44.472;-123.352;2022-07-06T08:29:29;3.08;;;0.45;;
64550;SDS011;50945;44.472;-123.352;2022-07-06T08:31:56;2.33;;;0.40;;
64550;SDS011;50945;44.472;-123.352;2022-07-06T08:34:22;0.55;;;0.52;;
64550;SDS011;50945;44.472;-123.352;2022-07-06T08:39:15;2.70;;;0.52;;
64550;SDS011;50945;44.472;-123.352;2022-07-06T08:41:42;0.30;;;0.30;;
64550;SDS011;50945;44.472;-123.352;2022-07-06T08:44:15;0.20;;;0.20;;
64550;SDS011;50945;44.472;-123.352;2022-07-06T08:46:43;0.20;;;0.20;;
64550;SDS011;50945;44.472;-123.352;2022-07-06T08:49:14;0.90;;;0.30;;
64550;SDS011;50945;44.472;-123.352;2022-07-06T08:51:42;1.88;;;0.63;;
64550;SDS011;50945;44.472;-123.352;2022-07-06T08:56:36;2.40;;;0.90;;
64550;SDS011;50945;44.472;-123.352;2022-07-06T08:59:04;2.15;;;0.90;;
64550;SDS011;50945;44.472;-123.352;2022-07-06T09:01:33;1.73;;;0.60;;
64550;SDS011;50945;44.472;-123.352;2022-07-06T09:04:00;2.92;;;0.45;;
64550;SDS011;50945;44.472;-123.352;2022-07-06T09:06:31;2.05;;;0.50;;
64550;SDS011;50945;44.472;-123.352;2022-07-06T09:08:58;1.55;;;0.73;;
64550;SDS011;50945;44.472;-123.352;2022-07-06T09:11:28;3.25;;;0.80;;
64550;SDS011;50945;44.472;-123.352;2022-07-06T09:13:55;0.90;;;0.60;;
64550;SDS011;50945;44.472;-123.352;2022-07-06T09:16:26;2.10;;;0.70;;
64550;SDS011;50945;44.472;-123.352;2022-07-06T09:18:54;2.17;;;0.85;;
64550;SDS011;50945;44.472;-123.352;2022-07-06T09:21:30;2.83;;;0.60;;
64550;SDS011;50945;44.472;-123.352;2022-07-06T09:23:59;1.75;;;0.82;;
64550;SDS011;50945;44.472;-123.352;2022-07-06T09:26:28;2.20;;;0.45;;
64550;SDS011;50945;44.472;-123.352;2022-07-06T09:28:55;1.77;;;0.55;;
64550;SDS011;50945;44.472;-123.352;2022-07-06T09:31:22;1.30;;;0.47;;
64550;SDS011;50945;44.472;-123.352;2022-07-06T09:34:02;0.20;;;0.20;;
64550;SDS011;50945;44.472;-123.352;2022-07-06T09:36:48;1.75;;;0.57;;
64550;SDS011;50945;44.472;-123.352;2022-07-06T09:39:20;1.45;;;0.43;;
64550;SDS011;50945;44.472;-123.352;2022-07-06T09:41:51;0.60;;;0.60;;
64550;SDS011;50945;44.472;-123.352;2022-07-06T09:44:29;2.25;;;0.68;;
64550;SDS011;50945;44.472;-123.352;2022-07-06T09:47:00;3.55;;;0.65;;
64550;SDS011;50945;44.472;-123.352;2022-07-06T09:49:28;1.75;;;0.47;;
64550;SDS011;50945;44.472;-123.352;2022-07-06T09:51:58;3.78;;;0.60;;
64550;SDS011;50945;44.472;-123.352;2022-07-06T09:54:26;2.75;;;0.73;;
64550;SDS011;50945;44.472;-123.352;2022-07-06T09:56:53;2.13;;;0.90;;
64550;SDS011;50945;44.472;-123.352;2022-07-06T09:59:21;1.20;;;0.52;;
64550;SDS011;50945;44.472;-123.352;2022-07-06T10:01:53;3.70;;;0.90;;
64550;SDS011;50945;44.472;-123.352;2022-07-06T10:04:22;0.50;;;0.50;;
64550;SDS011;50945;44.472;-123.352;2022-07-06T10:06:49;1.42;;;0.60;;
64550;SDS011;50945;44.472;-123.352;2022-07-06T10:09:16;1.33;;;0.52;;
64550;SDS011;50945;44.472;-123.352;2022-07-06T10:11:45;1.73;;;0.63;;
64550;SDS011;50945;44.472;-123.352;2022-07-06T10:14:18;0.50;;;0.50;;
64550;SDS011;50945;44.472;-123.352;2022-07-06T10:16:49;10.43;;;0.73;;
64550;SDS011;50945;44.472;-123.352;2022-07-06T10:19:16;1.95;;;0.60;;
64550;SDS011;50945;44.472;-123.352;2022-07-06T10:21:47;1.67;;;0.50;;
64550;SDS011;50945;44.472;-123.352;2022-07-06T10:24:13;0.50;;;0.40;;
64550;SDS011;50945;44.472;-123.352;2022-07-06T10:26:40;0.70;;;0.70;;
64550;SDS011;50945;44.472;-123.352;2022-07-06T10:29:07;0.93;;;0.93;;
64550;SDS011;50945;44.472;-123.352;2022-07-06T10:31:35;0.98;;;0.35;;
64550;SDS011;50945;44.472;-123.352;2022-07-06T10:34:06;0.73;;;0.73;;
64550;SDS011;50945;44.472;-123.352;2022-07-06T10:36:41;3.90;;;0.75;;
64550;SDS011;50945;44.472;-123.352;2022-07-06T10:39:10;1.48;;;0.68;;
64550;SDS011;50945;44.472;-123.352;2022-07-06T10:41:55;2.05;;;0.60;;
64550;SDS011;50945;44.472;-123.352;2022-07-06T10:44:26;0.60;;;0.47;;
64550;SDS011;50945;44.472;-123.352;2022-07-06T10:46:58;3.05;;;0.85;;
64550;SDS011;50945;44.472;-123.352;2022-07-06T10:49:25;1.48;;;0.70;;
64550;SDS011;50945;44.472;-123.352;2022-07-06T10:51:52;0.68;;;0.68;;
64550;SDS011;50945;44.472;-123.352;2022-07-06T10:54:22;2.92;;;0.70;;
64550;SDS011;50945;44.472;-123.352;2022-07-06T10:56:50;0.70;;;0.60;;
64550;SDS011;50945;44.472;-123.352;2022-07-06T11:04:40;1.30;;;0.60;;
64550;SDS011;50945;44.472;-123.352;2022-07-06T11:07:11;0.40;;;0.40;;
64550;SDS011;50945;44.472;-123.352;2022-07-06T11:09:53;0.60;;;0.60;;
64550;SDS011;50945;44.472;-123.352;2022-07-06T11:12:24;1.73;;;1.52;;
64550;SDS011;50945;44.472;-123.352;2022-07-06T11:14:51;0.70;;;0.65;;
64550;SDS011;50945;44.472;-123.352;2022-07-06T11:17:19;4.90;;;0.70;;
64550;SDS011;50945;44.472;-123.352;2022-07-06T11:19:58;1.00;;;0.98;;
64550;SDS011;50945;44.472;-123.352;2022-07-06T11:22:37;4.53;;;0.88;;
64550;SDS011;50945;44.472;-123.352;2022-07-06T11:25:04;1.27;;;0.65;;
64550;SDS011;50945;44.472;-123.352;2022-07-06T11:27:31;1.50;;;0.70;;
64550;SDS011;50945;44.472;-123.352;2022-07-06T11:29:59;2.53;;;1.05;;
64550;SDS011;50945;44.472;-123.352;2022-07-06T11:32:26;2.88;;;0.90;;
64550;SDS011;50945;44.472;-123.352;2022-07-06T11:34:53;0.73;;;0.73;;
64550;SDS011;50945;44.472;-123.352;2022-07-06T11:37:19;1.75;;;0.90;;
64550;SDS011;50945;44.472;-123.352;2022-07-06T11:39:46;1.40;;;0.70;;
64550;SDS011;50945;44.472;-123.352;2022-07-06T11:42:14;2.70;;;0.98;;
64550;SDS011;50945;44.472;-123.352;2022-07-06T11:44:43;1.20;;;0.70;;
64550;SDS011;50945;44.472;-123.352;2022-07-06T11:47:10;3.17;;;0.63;;
64550;SDS011;50945;44.472;-123.352;2022-07-06T11:49:38;1.33;;;1.00;;
64550;SDS011;50945;44.472;-123.352;2022-07-06T11:52:06;1.02;;;0.70;;
64550;SDS011;50945;44.472;-123.352;2022-07-06T11:54:37;1.85;;;0.80;;
64550;SDS011;50945;44.472;-123.352;2022-07-06T11:57:03;2.20;;;0.60;;
64550;SDS011;50945;44.472;-123.352;2022-07-06T11:59:33;1.63;;;1.02;;
64550;SDS011;50945;44.472;-123.352;2022-07-06T12:04:28;0.82;;;0.82;;
64550;SDS011;50945;44.472;-123.352;2022-07-06T12:06:55;1.98;;;0.90;;
64550;SDS011;50945;44.472;-123.352;2022-07-06T12:09:26;0.82;;;0.75;;
64550;SDS011;50945;44.472;-123.352;2022-07-06T12:11:58;0.93;;;0.70;;
64550;SDS011;50945;44.472;-123.352;2022-07-06T12:14:28;1.90;;;0.70;;
64550;SDS011;50945;44.472;-123.352;2022-07-06T12:16:56;1.58;;;0.90;;
64550;SDS011;50945;44.472;-123.352;2022-07-06T12:19:32;3.58;;;1.17;;
64550;SDS011;50945;44.472;-123.352;2022-07-06T12:21:59;1.52;;;0.38;;
64550;SDS011;50945;44.472;-123.352;2022-07-06T12:24:29;0.77;;;0.77;;
64550;SDS011;50945;44.472;-123.352;2022-07-06T12:26:57;2.05;;;0.85;;
64550;SDS011;50945;44.472;-123.352;2022-07-06T12:29:34;0.57;;;0.57;;
64550;SDS011;50945;44.472;-123.352;2022-07-06T12:32:01;0.60;;;0.60;;
64550;SDS011;50945;44.472;-123.352;2022-07-06T12:34:28;0.80;;;0.80;;
64550;SDS011;50945;44.472;-123.352;2022-07-06T12:37:05;0.95;;;0.70;;
64550;SDS011;50945;44.472;-123.352;2022-07-06T12:39:40;0.70;;;0.70;;
64550;SDS011;50945;44.472;-123.352;2022-07-06T12:42:08;0.85;;;0.85;;
64550;SDS011;50945;44.472;-123.352;2022-07-06T12:44:41;4.65;;;1.30;;
64550;SDS011;50945;44.472;-123.352;2022-07-06T12:47:12;1.00;;;0.75;;
64550;SDS011;50945;44.472;-123.352;2022-07-06T12:49:41;1.77;;;0.68;;
64550;SDS011;50945;44.472;-123.352;2022-07-06T12:52:14;2.28;;;0.70;;
64550;SDS011;50945;44.472;-123.352;2022-07-06T12:54:43;0.68;;;0.50;;
64550;SDS011;50945;44.472;-123.352;2022-07-06T12:57:20;0.68;;;0.68;;
64550;SDS011;50945;44.472;-123.352;2022-07-06T13:02:27;0.57;;;0.57;;
64550;SDS011;50945;44.472;-123.352;2022-07-06T13:05:00;1.25;;;0.77;;
64550;SDS011;50945;44.472;-123.352;2022-07-06T13:07:27;1.20;;;0.60;;
64550;SDS011;50945;44.472;-123.352;2022-07-06T13:09:57;1.08;;;0.50;;
64550;SDS011;50945;44.472;-123.352;2022-07-06T13:12:24;0.82;;;0.82;;
64550;SDS011;50945;44.472;-123.352;2022-07-06T13:14:51;1.42;;;0.85;;
64550;SDS011;50945;44.472;-123.352;2022-07-06T13:17:17;1.67;;;0.80;;
64550;SDS011;50945;44.472;-123.352;2022-07-06T13:19:44;1.13;;;0.60;;
64550;SDS011;50945;44.472;-123.352;2022-07-06T13:22:10;1.50;;;0.50;;
64550;SDS011;50945;44.472;-123.352;2022-07-06T13:24:37;4.10;;;1.30;;
64550;SDS011;50945;44.472;-123.352;2022-07-06T13:27:04;2.63;;;0.93;;
64550;SDS011;50945;44.472;-123.352;2022-07-06T13:29:31;2.67;;;0.77;;
64550;SDS011;50945;44.472;-123.352;2022-07-06T13:31:57;0.57;;;0.57;;
64550;SDS011;50945;44.472;-123.352;2022-07-06T13:34:23;0.55;;;0.50;;
64550;SDS011;50945;44.472;-123.352;2022-07-06T13:36:50;4.20;;;0.88;;
64550;SDS011;50945;44.472;-123.352;2022-07-06T13:39:18;1.85;;;0.90;;
64550;SDS011;50945;44.472;-123.352;2022-07-06T13:41:44;6.13;;;0.77;;
64550;SDS011;50945;44.472;-123.352;2022-07-06T13:44:11;2.28;;;0.65;;
64550;SDS011;50945;44.472;-123.352;2022-07-06T13:46:38;1.83;;;0.77;;
64550;SDS011;50945;44.472;-123.352;2022-07-06T13:49:05;1.98;;;0.80;;
64550;SDS011;50945;44.472;-123.352;2022-07-06T13:51:32;1.70;;;0.80;;
64550;SDS011;50945;44.472;-123.352;2022-07-06T13:53:58;2.72;;;1.10;;
64550;SDS011;50945;44.472;-123.352;2022-07-06T13:56:25;2.63;;;0.63;;
64550;SDS011;50945;44.472;-123.352;2022-07-06T13:58:53;1.83;;;0.75;;
64550;SDS011;50945;44.472;-123.352;2022-07-06T14:01:20;0.50;;;0.50;;
64550;SDS011;50945;44.472;-123.352;2022-07-06T14:06:12;1.05;;;0.75;;
64550;SDS011;50945;44.472;-123.352;2022-07-06T14:08:40;1.30;;;0.73;;
64550;SDS011;50945;44.472;-123.352;2022-07-06T14:11:07;2.00;;;0.93;;
64550;SDS011;50945;44.472;-123.352;2022-07-06T14:13:34;1.23;;;0.60;;
64550;SDS011;50945;44.472;-123.352;2022-07-06T14:16:02;4.05;;;1.10;;
64550;SDS011;50945;44.472;-123.352;2022-07-06T14:18:29;3.15;;;1.17;;
64550;SDS011;50945;44.472;-123.352;2022-07-06T14:20:56;0.70;;;0.70;;
64550;SDS011;50945;44.472;-123.352;2022-07-06T14:25:49;2.55;;;1.00;;
64550;SDS011;50945;44.472;-123.352;2022-07-06T14:28:16;1.60;;;1.00;;
64550;SDS011;50945;44.472;-123.352;2022-07-06T14:30:43;2.00;;;1.00;;
64550;SDS011;50945;44.472;-123.352;2022-07-06T14:33:11;0.80;;;0.68;;
64550;SDS011;50945;44.472;-123.352;2022-07-06T14:35:40;1.35;;;0.88;;
64550;SDS011;50945;44.472;-123.352;2022-07-06T14:38:14;2.72;;;0.90;;
64550;SDS011;50945;44.472;-123.352;2022-07-06T14:40:41;1.65;;;0.90;;
64550;SDS011;50945;44.472;-123.352;2022-07-06T14:43:08;2.28;;;0.88;;
64550;SDS011;50945;44.472;-123.352;2022-07-06T14:45:35;1.30;;;1.20;;
64550;SDS011;50945;44.472;-123.352;2022-07-06T14:50:28;2.45;;;0.73;;
64550;SDS011;50945;44.472;-123.352;2022-07-06T14:52:54;0.68;;;0.68;;
64550;SDS011;50945;44.472;-123.352;2022-07-06T14:55:21;0.82;;;0.82;;
64550;SDS011;50945;44.472;-123.352;2022-07-06T14:57:47;0.77;;;0.77;;
64550;SDS011;50945;44.472;-123.352;2022-07-06T15:02:41;1.45;;;1.00;;
64550;SDS011;50945;44.472;-123.352;2022-07-06T15:05:08;1.20;;;0.73;;
64550;SDS011;50945;44.472;-123.352;2022-07-06T15:07:35;0.90;;;0.90;;
64550;SDS011;50945;44.472;-123.352;2022-07-06T15:10:03;1.08;;;0.90;;
64550;SDS011;50945;44.472;-123.352;2022-07-06T15:12:30;3.42;;;1.27;;
64550;SDS011;50945;44.472;-123.352;2022-07-06T15:14:56;4.28;;;1.20;;
64550;SDS011;50945;44.472;-123.352;2022-07-06T15:17:22;1.65;;;1.08;;
64550;SDS011;50945;44.472;-123.352;2022-07-06T15:19:49;2.65;;;0.82;;
64550;SDS011;50945;44.472;-123.352;2022-07-06T15:22:15;0.70;;;0.70;;
64550;SDS011;50945;44.472;-123.352;2022-07-06T15:24:41;2.83;;;1.17;;
64550;SDS011;50945;44.472;-123.352;2022-07-06T15:27:08;1.17;;;0.98;;